createdAt,value
2018-11-23T00:01:40.887Z,24.15
2018-11-23T00:04:09.069Z,21.60
2018-11-23T00:06:37.243Z,22.52
2018-11-23T00:09:06.380Z,22.58
2018-11-23T00:11:34.582Z,24.18
2018-11-23T00:14:02.834Z,25.50
2018-11-23T00:16:31.000Z,28.20
2018-11-23T00:18:59.159Z,28.10
2018-11-23T00:21:27.334Z,18.10
2018-11-23T00:23:55.482Z,17.30
2018-11-23T00:26:23.647Z,15.53
2018-11-23T00:28:51.807Z,15.27
2018-11-23T00:31:20.035Z,14.17
2018-11-23T00:33:48.187Z,12.80
2018-11-23T00:36:16.360Z,14.50
2018-11-23T00:38:44.516Z,15.40
2018-11-23T00:41:12.685Z,16.40
2018-11-23T00:43:40.835Z,13.77
2018-11-23T00:46:08.999Z,14.23
2018-11-23T00:48:37.154Z,13.90
2018-11-23T00:51:05.637Z,16.07
2018-11-23T00:53:33.835Z,15.63
2018-11-23T00:56:01.999Z,14.07
2018-11-23T00:58:30.145Z,14.90
2018-11-23T01:00:58.345Z,15.13
2018-11-23T01:03:26.498Z,14.00
2018-11-23T01:05:54.663Z,14.33
2018-11-23T01:08:22.819Z,16.53
2018-11-23T01:10:50.996Z,15.20
2018-11-23T01:13:19.179Z,20.20
2018-11-23T01:15:47.345Z,24.15
2018-11-23T01:18:15.524Z,22.22
2018-11-23T01:20:43.696Z,22.13
2018-11-23T01:23:11.876Z,20.55
2018-11-23T01:25:40.047Z,21.12
2018-11-23T01:28:08.223Z,21.37
2018-11-23T01:30:36.420Z,20.17
2018-11-23T01:33:04.603Z,20.00
2018-11-23T01:35:32.791Z,19.35
2018-11-23T01:38:00.979Z,18.32
2018-11-23T01:40:30.288Z,17.65
2018-11-23T01:42:58.892Z,16.43
2018-11-23T01:45:27.101Z,17.62
2018-11-23T01:47:55.281Z,17.65
2018-11-23T01:50:24.820Z,16.48
2018-11-23T01:52:53.325Z,16.12
2018-11-23T01:55:22.412Z,17.35
2018-11-23T01:57:50.606Z,17.60
2018-11-23T02:00:20.901Z,17.07
2018-11-23T02:02:49.698Z,14.18
2018-11-23T02:05:17.917Z,14.95
2018-11-23T02:07:46.155Z,13.55
2018-11-23T02:10:15.429Z,12.00
2018-11-23T02:12:43.639Z,13.30
2018-11-23T02:15:15.703Z,13.13
2018-11-23T02:17:43.950Z,14.03
2018-11-23T02:20:13.452Z,13.85
2018-11-23T02:22:41.675Z,14.95
2018-11-23T02:25:09.918Z,14.93
2018-11-23T02:27:38.138Z,11.87
2018-11-23T02:30:19.453Z,11.47
2018-11-23T02:32:47.672Z,10.97
2018-11-23T02:35:16.323Z,10.50
2018-11-23T02:37:44.555Z,15.38
2018-11-23T02:40:14.095Z,16.15
2018-11-23T02:42:42.372Z,14.90
2018-11-23T02:45:13.200Z,16.42
2018-11-23T02:47:42.274Z,16.63
2018-11-23T02:50:10.504Z,17.00
2018-11-23T02:52:39.267Z,16.23
2018-11-23T02:55:08.183Z,17.67
2018-11-23T02:57:36.434Z,16.80
2018-11-23T03:00:05.452Z,15.98
2018-11-23T03:02:33.675Z,14.33
2018-11-23T03:05:01.908Z,14.05
2018-11-23T03:07:30.116Z,15.10
2018-11-23T03:09:58.375Z,16.52
2018-11-23T03:12:26.615Z,16.70
2018-11-23T03:14:54.842Z,16.57
2018-11-23T03:17:23.048Z,16.05
2018-11-23T03:19:51.252Z,11.27
2018-11-23T03:22:19.446Z,11.97
2018-11-23T03:24:47.647Z,10.63
2018-11-23T03:34:38.336Z,15.13
2018-11-23T03:37:06.524Z,15.43
2018-11-23T03:39:34.709Z,14.35
2018-11-23T03:42:02.892Z,14.68
2018-11-23T03:44:31.063Z,14.00
2018-11-23T03:46:59.241Z,16.37
2018-11-23T03:49:27.439Z,16.43
2018-11-23T03:51:55.623Z,15.10
2018-11-23T03:54:23.803Z,14.68
2018-11-23T03:56:51.984Z,14.47
2018-11-23T03:59:20.159Z,14.85
2018-11-23T04:01:48.335Z,15.05
2018-11-23T04:04:16.501Z,13.22
2018-11-23T04:06:44.675Z,10.83
2018-11-23T04:09:12.831Z,9.77
2018-11-23T04:11:41.018Z,10.00
2018-11-23T04:14:09.184Z,9.03
2018-11-23T04:16:37.346Z,9.67
2018-11-23T04:19:05.539Z,10.80
2018-11-23T04:21:33.721Z,10.53
2018-11-23T04:24:01.890Z,10.10
2018-11-23T04:26:30.056Z,10.93
2018-11-23T04:28:58.228Z,8.90
2018-11-23T04:31:26.390Z,9.40
2018-11-23T04:33:54.561Z,10.10
2018-11-23T04:36:22.725Z,8.60
2018-11-23T04:38:50.922Z,9.07
2018-11-23T04:41:19.089Z,9.93
2018-11-23T04:43:47.555Z,9.87
2018-11-23T04:46:15.743Z,10.00
2018-11-23T04:48:43.901Z,9.57
2018-11-23T04:51:12.070Z,9.30
2018-11-23T04:53:40.232Z,9.83
2018-11-23T04:56:08.408Z,8.90
2018-11-23T04:58:36.607Z,10.03
2018-11-23T05:01:04.774Z,9.50
2018-11-23T05:03:32.931Z,13.32
2018-11-23T05:06:01.099Z,10.60
2018-11-23T05:08:29.268Z,10.33
2018-11-23T05:10:57.451Z,9.03
2018-11-23T05:13:25.611Z,9.60
2018-11-23T05:15:53.776Z,9.97
2018-11-23T05:18:21.945Z,9.90
2018-11-23T05:20:50.111Z,9.73
2018-11-23T05:23:18.278Z,10.40
2018-11-23T05:25:46.459Z,10.60
2018-11-23T05:28:14.632Z,9.97
2018-11-23T05:30:42.804Z,9.70
2018-11-23T05:33:10.971Z,10.13
2018-11-23T05:35:39.152Z,11.80
2018-11-23T05:38:07.314Z,9.63
2018-11-23T05:40:35.482Z,9.03
2018-11-23T05:43:04.544Z,13.10
2018-11-23T05:45:31.864Z,13.88
2018-11-23T05:48:00.031Z,13.75
2018-11-23T05:50:28.231Z,13.68
2018-11-23T05:52:56.411Z,14.33
2018-11-23T05:55:24.642Z,12.35
2018-11-23T05:57:53.203Z,12.70
2018-11-23T06:00:23.928Z,13.23
2018-11-23T06:02:52.278Z,14.05
2018-11-23T06:05:20.460Z,13.95
2018-11-23T06:07:48.630Z,17.00
2018-11-23T06:10:19.054Z,15.93
2018-11-23T06:12:47.211Z,17.10
2018-11-23T06:15:17.657Z,15.90
2018-11-23T06:17:46.198Z,15.38
2018-11-23T06:20:16.139Z,17.70
2018-11-23T06:22:45.455Z,15.85
2018-11-23T06:25:33.698Z,15.63
2018-11-23T06:28:01.874Z,14.78
2018-11-23T06:30:30.056Z,15.78
2018-11-23T06:33:09.812Z,14.00
2018-11-23T06:35:37.991Z,15.20
2018-11-23T06:38:06.199Z,14.83
2018-11-23T06:40:34.419Z,16.47
2018-11-23T06:43:02.599Z,15.53
2018-11-23T06:45:33.098Z,17.07
2018-11-23T06:48:01.290Z,16.32
2018-11-23T06:50:29.468Z,17.42
2018-11-23T06:52:57.634Z,16.30
2018-11-23T06:55:25.799Z,15.38
2018-11-23T06:57:53.982Z,17.80
2018-11-23T07:00:22.171Z,17.07
2018-11-23T07:02:50.345Z,17.40
2018-11-23T07:05:18.544Z,18.33
2018-11-23T07:07:46.724Z,17.98
2018-11-23T07:10:14.895Z,16.93
2018-11-23T07:12:43.091Z,15.40
2018-11-23T07:15:12.048Z,15.85
2018-11-23T07:17:40.789Z,16.40
2018-11-23T07:20:10.490Z,17.90
2018-11-23T07:22:39.275Z,17.10
2018-11-23T07:25:08.571Z,16.90
2018-11-23T07:27:36.827Z,16.35
2018-11-23T07:30:09.119Z,16.60
2018-11-23T07:32:37.342Z,15.10
2018-11-23T07:35:05.772Z,15.78
2018-11-23T07:37:34.878Z,17.57
2018-11-23T07:40:14.506Z,18.75
2018-11-23T07:42:42.749Z,19.40
2018-11-23T07:45:10.964Z,21.48
2018-11-23T07:47:39.195Z,22.45
2018-11-23T07:50:08.754Z,21.10
2018-11-23T07:52:37.007Z,22.45
2018-11-23T07:55:06.844Z,22.63
2018-11-23T07:57:35.306Z,21.80
2018-11-23T08:00:04.748Z,19.90
2018-11-23T08:02:32.967Z,21.62
2018-11-23T08:05:01.184Z,19.02
2018-11-23T08:07:29.415Z,19.12
2018-11-23T08:09:57.091Z,17.55
2018-11-23T08:12:25.306Z,16.40
2018-11-23T08:14:53.503Z,15.05
2018-11-23T08:17:21.711Z,15.38
2018-11-23T08:19:49.935Z,15.90
2018-11-23T08:22:18.139Z,16.50
2018-11-23T08:24:46.367Z,17.65
2018-11-23T08:27:14.567Z,17.50
2018-11-23T08:29:42.759Z,16.45
2018-11-23T08:32:10.934Z,16.10
2018-11-23T08:34:39.127Z,14.00
2018-11-23T08:37:07.288Z,13.40
2018-11-23T08:39:35.447Z,16.00
2018-11-23T08:42:03.627Z,14.35
2018-11-23T08:44:31.799Z,15.28
2018-11-23T08:46:59.995Z,15.32
2018-11-23T08:49:28.179Z,18.80
2018-11-23T08:51:56.340Z,20.65
2018-11-23T08:54:24.529Z,19.65
2018-11-23T08:56:52.706Z,17.63
2018-11-23T08:59:20.884Z,18.53
2018-11-23T09:01:49.120Z,17.20
2018-11-23T09:04:17.300Z,17.65
2018-11-23T09:06:45.502Z,15.80
2018-11-23T09:09:13.677Z,16.48
2018-11-23T09:11:41.844Z,16.50
2018-11-23T09:14:10.732Z,15.72
2018-11-23T09:16:38.929Z,15.50
2018-11-23T09:19:07.175Z,17.07
2018-11-23T09:21:35.550Z,16.32
2018-11-23T09:24:03.767Z,16.42
2018-11-23T09:26:31.971Z,14.63
2018-11-23T09:29:00.199Z,14.10
2018-11-23T09:31:28.430Z,13.85
2018-11-23T09:33:56.751Z,15.28
2018-11-23T09:36:24.955Z,16.45
2018-11-23T09:38:53.238Z,17.50
2018-11-23T09:41:21.459Z,19.90
2018-11-23T09:43:49.683Z,19.82
2018-11-23T09:46:17.924Z,17.15
2018-11-23T09:48:46.147Z,16.80
2018-11-23T09:51:14.370Z,16.48
2018-11-23T09:53:42.612Z,19.27
2018-11-23T09:56:10.850Z,17.40
2018-11-23T09:58:43.408Z,17.15
2018-11-23T10:03:35.548Z,18.17
2018-11-23T10:06:03.772Z,20.53
2018-11-23T10:08:37.136Z,21.13
2018-11-23T10:11:00.195Z,21.95
2018-11-23T10:13:28.475Z,22.37
2018-11-23T10:15:56.712Z,20.65
2018-11-23T10:18:24.923Z,20.10
2018-11-23T10:20:53.147Z,17.87
2018-11-23T10:23:21.386Z,17.82
2018-11-23T10:25:49.619Z,16.48
2018-11-23T10:28:17.839Z,16.82
2018-11-23T10:30:46.027Z,17.15
2018-11-23T10:33:14.205Z,19.00
2018-11-23T10:35:42.447Z,20.20
2018-11-23T10:38:10.609Z,21.33
2018-11-23T10:40:40.112Z,21.50
2018-11-23T10:43:08.755Z,21.10
2018-11-23T10:45:37.215Z,20.10
2018-11-23T10:48:06.536Z,18.67
2018-11-23T10:50:36.231Z,19.35
2018-11-23T10:53:04.791Z,18.30
2018-11-23T10:55:34.123Z,20.17
2018-11-23T10:58:02.300Z,18.10
2018-11-23T11:00:35.989Z,17.65
2018-11-23T11:03:09.618Z,15.63
2018-11-23T11:05:43.359Z,15.80
2018-11-23T11:08:11.539Z,15.10
2018-11-23T11:10:39.722Z,15.43
2018-11-23T11:13:07.929Z,16.30
2018-11-23T11:15:36.162Z,16.65
2018-11-23T11:18:04.358Z,16.62
2018-11-23T11:20:32.587Z,16.73
2018-11-23T11:23:00.763Z,18.80
2018-11-23T11:25:28.984Z,20.00
2018-11-23T11:27:57.213Z,20.85
2018-11-23T11:30:25.439Z,21.70
2018-11-23T11:32:53.658Z,22.70
2018-11-23T11:35:21.895Z,23.47
2018-11-23T11:37:50.116Z,23.18
2018-11-23T11:40:19.399Z,24.27
2018-11-23T11:42:47.631Z,23.60
2018-11-23T11:45:17.273Z,19.35
2018-11-23T11:47:46.015Z,23.12
2018-11-23T11:50:14.716Z,19.27
2018-11-23T11:52:44.215Z,20.00
2018-11-23T11:55:14.035Z,18.70
2018-11-23T11:57:42.808Z,19.37
2018-11-23T12:00:12.835Z,19.07
2018-11-23T12:02:41.158Z,19.82
2018-11-23T12:05:10.833Z,22.32
2018-11-23T12:07:39.139Z,21.10
2018-11-23T12:10:10.425Z,21.10
2018-11-23T12:12:38.944Z,21.00
2018-11-23T12:15:08.099Z,20.82
2018-11-23T12:17:36.335Z,21.27
2018-11-23T12:20:06.695Z,20.20
2018-11-23T12:22:35.761Z,21.75
2018-11-23T12:25:04.105Z,21.62
2018-11-23T12:27:32.328Z,21.35
2018-11-23T12:30:00.556Z,20.30
2018-11-23T12:32:28.767Z,21.73
2018-11-23T12:34:56.983Z,20.55
2018-11-23T12:37:25.182Z,20.90
2018-11-23T12:39:53.635Z,21.02
2018-11-23T12:42:22.007Z,20.23
2018-11-23T12:44:50.235Z,17.07
2018-11-23T12:47:18.461Z,18.80
2018-11-23T12:49:46.680Z,16.33
2018-11-23T12:52:14.905Z,15.58
2018-11-23T12:54:43.138Z,14.43
2018-11-23T12:57:11.408Z,14.10
2018-11-23T12:59:39.641Z,15.43
2018-11-23T13:02:07.868Z,14.80
2018-11-23T13:04:36.100Z,16.90
2018-11-23T13:07:04.361Z,16.50
2018-11-23T13:09:32.582Z,16.07
2018-11-23T13:12:00.787Z,16.25
2018-11-23T13:14:29.003Z,15.48
2018-11-23T13:16:57.227Z,16.80
2018-11-23T13:19:25.439Z,16.33
2018-11-23T13:21:53.650Z,18.23
2018-11-23T13:24:21.864Z,16.60
2018-11-23T13:26:50.052Z,17.57
2018-11-23T13:29:18.291Z,17.95
2018-11-23T13:31:46.484Z,18.40
2018-11-23T13:34:14.676Z,18.52
2018-11-23T13:36:42.865Z,18.80
2018-11-23T13:39:11.067Z,18.80
2018-11-23T13:41:39.255Z,17.85
2018-11-23T13:44:07.455Z,17.60
2018-11-23T13:46:35.643Z,17.40
2018-11-23T13:49:03.816Z,18.60
2018-11-23T13:51:32.000Z,19.00
2018-11-23T13:54:00.171Z,19.20
2018-11-23T13:56:28.371Z,20.70
2018-11-23T13:58:56.559Z,20.50
2018-11-23T14:01:24.749Z,22.50
2018-11-23T14:03:52.935Z,21.23
2018-11-23T14:06:21.444Z,21.00
2018-11-23T14:08:49.647Z,22.15
2018-11-23T14:11:17.859Z,22.05
2018-11-23T14:13:46.102Z,22.60
2018-11-23T14:16:14.291Z,24.20
2018-11-23T14:18:42.472Z,24.77
2018-11-23T14:21:10.644Z,24.25
2018-11-23T14:23:38.827Z,24.10
2018-11-23T14:26:07.000Z,24.63
2018-11-23T14:28:35.227Z,25.70
2018-11-23T14:31:03.468Z,26.33
2018-11-23T14:33:31.751Z,25.73
2018-11-23T14:35:59.952Z,27.50
2018-11-23T14:38:28.410Z,25.70
2018-11-23T14:40:56.639Z,25.60
2018-11-23T14:43:24.933Z,25.35
2018-11-23T14:45:53.157Z,25.88
2018-11-23T14:48:21.402Z,25.27
2018-11-23T14:50:51.002Z,25.92
2018-11-23T14:53:19.228Z,22.45
2018-11-23T14:55:47.480Z,23.70
2018-11-23T14:58:15.715Z,24.12
2018-11-23T15:00:43.951Z,23.57
2018-11-23T15:03:12.192Z,24.27
2018-11-23T15:05:40.383Z,24.50
2018-11-23T15:08:08.829Z,24.37
2018-11-23T15:10:37.091Z,25.03
2018-11-23T15:13:06.511Z,24.85
2018-11-23T15:15:37.030Z,25.77
2018-11-23T15:18:05.848Z,27.37
2018-11-23T15:20:35.716Z,25.43
2018-11-23T15:23:07.562Z,26.15
2018-11-23T15:25:35.816Z,24.95
2018-11-23T15:28:04.351Z,24.63
2018-11-23T15:30:34.684Z,24.77
2018-11-23T15:33:03.472Z,26.87
2018-11-23T15:35:33.208Z,28.45
2018-11-23T15:38:01.460Z,27.45
2018-11-23T15:40:30.578Z,27.95
2018-11-23T15:43:00.251Z,26.00
2018-11-23T15:45:29.570Z,27.73
2018-11-23T15:47:58.435Z,25.17
2018-11-23T15:50:29.273Z,23.60
2018-11-23T15:52:57.496Z,23.20
2018-11-23T15:55:27.928Z,24.83
2018-11-23T15:57:57.793Z,24.37
2018-11-23T16:00:28.631Z,24.80
2018-11-23T16:02:56.858Z,25.75
2018-11-23T16:05:25.248Z,24.60
2018-11-23T16:07:55.184Z,26.12
2018-11-23T16:10:26.153Z,24.85
2018-11-23T16:12:55.735Z,27.17
2018-11-23T16:15:24.525Z,25.77
2018-11-23T16:17:53.208Z,25.85
2018-11-23T16:20:23.839Z,26.20
2018-11-23T16:22:53.343Z,25.72
2018-11-23T16:25:21.585Z,25.90
2018-11-23T16:27:51.339Z,24.90
2018-11-23T16:30:22.160Z,26.82
2018-11-23T16:32:51.350Z,26.27
2018-11-23T16:35:21.060Z,23.00
2018-11-23T16:37:49.548Z,20.93
2018-11-23T16:40:19.357Z,20.57
2018-11-23T16:42:47.554Z,18.17
2018-11-23T16:45:18.338Z,19.80
2018-11-23T17:44:24.364Z,18.43
2018-11-23T17:46:52.570Z,19.50
2018-11-23T17:49:20.882Z,28.07
2018-11-23T17:51:49.088Z,31.12
2018-11-23T17:54:17.362Z,27.50
2018-11-23T17:56:45.558Z,23.38
2018-11-23T17:59:13.788Z,25.55
2018-11-23T18:01:42.012Z,25.35
2018-11-23T18:04:10.213Z,23.45
2018-11-23T18:06:38.412Z,24.10
2018-11-23T18:09:07.394Z,24.83
2018-11-23T18:11:35.906Z,25.90
2018-11-23T18:14:04.172Z,27.48
2018-11-23T18:16:32.399Z,26.42
2018-11-23T18:19:00.724Z,27.65
2018-11-23T18:21:29.000Z,29.63
2018-11-23T18:23:57.207Z,28.47
2018-11-23T18:26:25.416Z,28.30
2018-11-23T18:28:53.595Z,27.80
2018-11-23T18:31:21.759Z,28.07
2018-11-23T18:33:49.939Z,27.73
2018-11-23T18:36:18.102Z,29.02
2018-11-23T18:38:46.272Z,29.27
2018-11-23T18:41:14.431Z,28.90
2018-11-23T18:43:42.600Z,29.30
2018-11-23T18:46:10.761Z,29.65
2018-11-23T18:48:38.917Z,26.62
2018-11-23T18:51:07.116Z,24.12
2018-11-23T18:53:35.294Z,23.55
2018-11-23T18:56:03.471Z,23.98
2018-11-23T18:58:31.665Z,19.75
2018-11-23T19:00:59.852Z,20.62
2018-11-23T19:03:28.046Z,20.08
2018-11-23T19:05:56.215Z,19.12
2018-11-23T19:08:24.392Z,17.35
2018-11-23T19:10:52.591Z,17.00
2018-11-23T19:13:20.744Z,17.02
2018-11-23T19:15:48.886Z,17.55
2018-11-23T19:18:17.068Z,18.00
2018-11-23T19:20:45.224Z,18.52
2018-11-23T19:23:13.383Z,17.95
2018-11-23T19:25:41.531Z,15.78
2018-11-23T19:28:09.809Z,16.87
2018-11-23T19:30:38.009Z,15.90
2018-11-23T19:33:06.227Z,17.00
2018-11-23T19:35:34.435Z,18.75
2018-11-23T19:38:02.635Z,17.75
2018-11-23T19:40:30.845Z,18.57
2018-11-23T19:42:59.052Z,19.00
2018-11-23T19:45:27.284Z,18.80
2018-11-23T19:47:55.495Z,19.20
2018-11-23T19:50:23.699Z,18.50
2018-11-23T19:52:51.927Z,18.62
2018-11-23T19:55:20.167Z,18.65
2018-11-23T19:57:48.366Z,18.00
2018-11-23T20:00:20.863Z,18.13
2018-11-23T20:02:49.087Z,17.00
2018-11-23T20:05:17.318Z,17.30
2018-11-23T20:07:46.282Z,17.20
2018-11-23T20:10:15.699Z,18.32
2018-11-23T20:12:44.575Z,17.25
2018-11-23T20:15:14.916Z,18.40
2018-11-23T20:17:43.122Z,17.35
2018-11-23T20:20:12.400Z,18.45
2018-11-23T20:22:40.606Z,17.23
2018-11-23T20:25:10.455Z,16.53
2018-11-23T20:27:38.662Z,17.05
2018-11-23T20:30:11.842Z,17.75
2018-11-23T20:32:40.032Z,16.05
2018-11-23T20:35:10.319Z,16.25
2018-11-23T20:37:38.526Z,16.00
2018-11-23T20:40:10.368Z,16.10
2018-11-23T20:42:38.595Z,15.30
2018-11-23T20:45:08.630Z,16.00
2018-11-23T20:47:36.835Z,15.75
2018-11-23T20:50:06.838Z,15.80
2018-11-23T20:52:35.035Z,16.35
2018-11-23T20:55:03.304Z,15.78
2018-11-23T20:57:31.502Z,16.70
2018-11-23T20:59:59.716Z,17.37
2018-11-23T21:02:27.925Z,18.60
2018-11-23T21:04:56.134Z,19.27
2018-11-23T21:07:24.339Z,19.23
2018-11-23T21:09:52.548Z,19.55
2018-11-23T21:12:20.783Z,20.30
2018-11-23T21:14:48.996Z,18.12
2018-11-23T21:17:17.218Z,18.17
2018-11-23T21:19:45.451Z,19.10
2018-11-23T21:22:13.646Z,18.65
2018-11-23T21:24:41.846Z,19.45
2018-11-23T21:27:10.023Z,20.75
2018-11-23T21:29:38.196Z,18.70
2018-11-23T21:32:06.360Z,19.77
2018-11-23T21:34:34.518Z,19.37
2018-11-23T21:37:02.715Z,18.10
2018-11-23T21:39:30.876Z,16.17
2018-11-23T21:41:59.099Z,16.48
2018-11-23T21:44:27.251Z,17.42
2018-11-23T21:46:55.425Z,18.10
2018-11-23T21:49:23.588Z,18.50
2018-11-23T21:51:51.768Z,17.42
2018-11-23T21:54:19.940Z,17.90
2018-11-23T21:56:48.117Z,17.25
2018-11-23T21:59:16.286Z,17.70
2018-11-23T22:01:44.475Z,17.40
2018-11-23T22:04:12.668Z,17.50
2018-11-23T22:06:40.860Z,18.75
2018-11-23T22:09:09.031Z,17.37
2018-11-23T22:11:37.182Z,16.97
2018-11-23T22:14:05.567Z,19.42
2018-11-23T22:16:33.755Z,19.17
2018-11-23T22:19:01.911Z,20.40
2018-11-23T22:21:30.091Z,18.73
2018-11-23T22:24:01.703Z,18.55
2018-11-23T22:26:26.454Z,18.98
2018-11-23T22:28:54.658Z,19.90
2018-11-23T22:31:22.887Z,19.77
2018-11-23T22:33:51.091Z,19.20
2018-11-23T22:36:19.312Z,19.10
2018-11-23T22:38:47.530Z,18.30
2018-11-23T22:41:15.735Z,18.50
2018-11-23T22:43:43.942Z,18.20
2018-11-23T22:46:12.151Z,19.40
2018-11-23T22:48:40.364Z,18.40
2018-11-23T22:51:08.567Z,19.73
2018-11-23T22:53:36.794Z,19.00
2018-11-23T22:56:05.067Z,18.00
2018-11-23T22:58:33.276Z,18.50
2018-11-23T23:01:02.388Z,19.77
2018-11-23T23:03:30.867Z,23.47
2018-11-23T23:06:00.088Z,22.00
2018-11-23T23:08:27.312Z,21.00
2018-11-23T23:10:55.656Z,20.90
2018-11-23T23:13:23.876Z,22.60
2018-11-23T23:15:52.092Z,22.70
2018-11-23T23:18:20.320Z,22.00
2018-11-23T23:20:48.535Z,24.55
2018-11-23T23:23:16.756Z,22.82
2018-11-23T23:25:44.976Z,23.10
2018-11-23T23:28:13.196Z,21.30
2018-11-23T23:30:41.383Z,23.83
2018-11-23T23:33:09.619Z,22.58
2018-11-23T23:35:37.823Z,22.73
2018-11-23T23:38:06.408Z,21.57
2018-11-23T23:40:34.628Z,22.60
2018-11-23T23:43:02.848Z,24.45
2018-11-23T23:45:31.086Z,24.90
2018-11-23T23:47:59.290Z,24.45
2018-11-23T23:50:27.511Z,24.63
2018-11-23T23:52:55.714Z,22.87
2018-11-23T23:55:23.931Z,25.97
2018-11-23T23:57:52.127Z,28.23
